Time;durP1;ratioP1;P1;durP2;ratioP2;P2;SDS_P1;SDS_P2;PMS_P1;PMS_P2;Temp;Humidity;BMP_temperature;BMP_pressure;BME280_temperature;BME280_humidity;BME280_pressure;Samples;Min_cycle;Max_cycle;Signal;HPM_P1;HPM_P2
2023/08/20 00:03:26;;;;;;;2.38;1.30;;;;;;;;;;20807128;28;20237;-74
2023/08/20 00:13:28;;;;;;;2.10;1.40;;;;;;;;;;20793109;28;20720;-74
2023/08/20 00:23:30;;;;;;;4.30;1.30;;;;;;;;;;20800462;28;20228;-74
2023/08/20 00:33:32;;;;;;;2.65;1.05;;;;;;;;;;20821918;28;20249;-75
2023/08/20 00:43:34;;;;;;;2.15;1.20;;;;;;;;;;20779907;28;20224;-74
2023/08/20 00:53:36;;;;;;;2.88;1.30;;;;;;;;;;20806194;28;20789;-75
2023/08/20 01:03:37;;;;;;;1.55;1.23;;;;;;;;;;20777585;28;20224;-75
2023/08/20 01:13:39;;;;;;;2.63;1.42;;;;;;;;;;20814111;28;20267;-74
2023/08/20 01:24:12;;;;;;;1.95;1.42;;;27.10;99.90;;;;;;20798761;28;20216;-74
2023/08/20 01:34:14;;;;;;;2.08;1.48;;;;;;;;;;20859690;28;20217;-74
2023/08/20 01:44:16;;;;;;;2.40;1.75;;;;;;;;;;20801661;28;20225;-75
2023/08/20 01:54:17;;;;;;;1.98;1.50;;;;;;;;;;20732291;28;20309;-74
2023/08/20 02:04:19;;;;;;;2.83;1.60;;;;;;;;;;20794445;28;20294;-74
2023/08/20 02:14:21;;;;;;;3.97;1.80;;;;;;;;;;20859158;28;20224;-75
2023/08/20 02:24:23;;;;;;;3.92;1.75;;;;;;;;;;20813564;28;20225;-75
2023/08/20 02:34:24;;;;;;;3.22;1.95;;;;;;;;;;20812004;28;20586;-74
2023/08/20 02:44:26;;;;;;;2.95;1.95;;;;;;;;;;20811905;28;20229;-75
2023/08/20 02:54:31;;;;;;;2.67;1.70;;;;;;;;;;20792645;28;20226;-75
2023/08/20 03:04:34;;;;;;;3.30;1.70;;;;;;;;;;20726058;28;20291;-75
2023/08/20 03:14:36;;;;;;;3.17;1.90;;;;;;;;;;20746027;28;20202;-74
2023/08/20 03:24:38;;;;;;;2.80;1.95;;;;;;;;;;20711975;28;20224;-75
2023/08/20 03:34:39;;;;;;;2.13;1.60;;;;;;;;;;20814568;28;20244;-74
2023/08/20 03:44:41;;;;;;;2.58;1.50;;;;;;;;;;20790518;28;20298;-74
2023/08/20 03:54:43;;;;;;;3.45;1.75;;;;;;;;;;20913324;22;20304;-68
2023/08/20 04:04:45;;;;;;;2.13;1.40;;;;;;;;;;20975544;28;20224;-67
2023/08/20 04:14:48;;;;;;;1.92;1.58;;;;;;;;;;21016480;28;20276;-68
2023/08/20 04:24:50;;;;;;;2.10;1.60;;;;;;;;;;21015632;28;20227;-67
2023/08/20 04:34:54;;;;;;;2.60;1.70;;;;;;;;;;21015423;28;20235;-68
2023/08/20 04:44:57;;;;;;;4.97;1.75;;;;;;;;;;20995853;28;20234;-68
2023/08/20 04:55:01;;;;;;;2.50;1.48;;;;;;;;;;20985820;28;20254;-68
2023/08/20 05:05:03;;;;;;;3.20;1.25;;;25.80;99.90;;;;;;21005930;28;20585;-68
2023/08/20 05:15:05;;;;;;;2.92;1.70;;;;;;;;;;20936081;28;20307;-68
2023/08/20 05:25:07;;;;;;;2.05;1.40;;;;;;;;;;21004992;28;20234;-68
2023/08/20 05:35:10;;;;;;;2.67;1.40;;;;;;;;;;20997781;28;20227;-68
2023/08/20 05:45:13;;;;;;;2.10;1.67;;;;;;;;;;21003563;28;20247;-66
2023/08/20 05:55:16;;;;;;;2.17;1.40;;;;;;;;;;20989880;28;20226;-67
2023/08/20 06:05:22;;;;;;;2.00;1.33;;;26.40;99.90;;;;;;20981723;28;20296;-67
2023/08/20 06:15:29;;;;;;;3.63;1.70;;;;;;;;;;21030296;28;20214;-67
2023/08/20 06:25:30;;;;;;;2.00;1.60;;;;;;;;;;20963245;28;20319;-67
2023/08/20 06:35:34;;;;;;;2.00;1.50;;;;;;;;;;21027795;28;20213;-67
2023/08/20 06:45:35;;;;;;;3.50;1.75;;;;;;;;;;21015077;28;20657;-67
2023/08/20 06:55:37;;;;;;;2.13;1.45;;;;;;;;;;21011470;28;20252;-67
2023/08/20 07:05:39;;;;;;;4.18;1.70;;;;;;;;;;20984005;28;20249;-67
2023/08/20 07:15:41;;;;;;;3.45;1.60;;;;;;;;;;20978386;28;20281;-67
2023/08/20 07:25:44;;;;;;;3.72;1.67;;;;;;;;;;20996487;28;20604;-67
2023/08/20 07:35:46;;;;;;;2.33;1.60;;;;;;;;;;21007922;28;20568;-67
2023/08/20 07:45:48;;;;;;;2.40;1.50;;;;;;;;;;20996498;28;20701;-69
2023/08/20 07:55:50;;;;;;;2.40;1.40;;;;;;;;;;20999227;28;20230;-69
2023/08/20 08:05:53;;;;;;;2.17;1.33;;;;;;;;;;21010017;28;20219;-69
2023/08/20 08:15:55;;;;;;;2.10;1.50;;;;;;;;;;21015875;28;20589;-69
2023/08/20 08:25:57;;;;;;;3.28;1.35;;;;;;;;;;21018821;28;20231;-68
2023/08/20 08:36:00;;;;;;;2.20;1.40;;;;;;;;;;21033638;28;20735;-68
2023/08/20 08:46:13;;;;;;;2.53;1.33;;;28.80;99.90;;;;;;21007570;28;20254;-68
2023/08/20 08:56:16;;;;;;;4.65;1.20;;;;;;;;;;21021228;28;20667;-68
2023/08/20 09:17:42;;;;;;;2.33;1.65;;;;;;;;;;21078404;28;20710;-67
2023/08/20 09:27:44;;;;;;;2.70;1.60;;;;;;;;;;21043291;28;20212;-67
2023/08/20 09:37:45;;;;;;;2.50;1.17;;;;;;;;;;21023296;28;20244;-67
2023/08/20 09:47:49;;;;;;;1.48;1.25;;;29.90;99.90;;;;;;21018671;28;20208;-68
2023/08/20 09:57:52;;;;;;;4.18;1.13;;;;;;;;;;21015104;28;20224;-67
2023/08/20 10:07:56;;;;;;;2.05;1.20;;;30.20;99.90;;;;;;21019357;28;20270;-67
2023/08/20 10:17:58;;;;;;;1.65;1.08;;;;;;;;;;21029350;28;20676;-67
2023/08/20 10:28:21;;;;;;;1.98;1.30;;;30.70;99.90;;;;;;21024679;28;20225;-67
2023/08/20 10:38:23;;;;;;;1.98;1.30;;;;;;;;;;20935543;22;20727;-77
2023/08/20 10:48:27;;;;;;;1.90;1.35;;;31.00;99.90;;;;;;20880536;28;20241;-77
2023/08/20 10:58:31;;;;;;;2.15;1.20;;;;;;;;;;20842421;28;20594;-77
2023/08/20 11:08:33;;;;;;;3.92;1.20;;;;;;;;;;20820383;28;20214;-77
2023/08/20 11:18:34;;;;;;;1.20;0.90;;;31.50;99.90;;;;;;20906386;28;20557;-76
2023/08/20 11:28:36;;;;;;;2.03;1.15;;;;;;;;;;20865780;28;20218;-76
2023/08/20 11:38:38;;;;;;;1.40;0.90;;;;;;;;;;20787139;28;20642;-76
2023/08/20 11:48:58;;;;;;;1.33;0.90;;;;;;;;;;20823407;28;20215;-76
2023/08/20 11:59:01;;;;;;;2.03;1.00;;;;;;;;;;20805242;28;20242;-77
2023/08/20 12:09:22;;;;;;;1.55;1.05;;;32.30;99.90;;;;;;20844424;28;20278;-77
2023/08/20 12:19:25;;;;;;;4.32;1.00;;;;;;;;;;20886518;28;20259;-77
2023/08/20 12:29:29;;;;;;;1.75;1.02;;;;;;;;;;20828944;28;20292;-77
2023/08/20 12:39:31;;;;;;;4.13;1.23;;;;;;;;;;20939268;28;20249;-77
2023/08/20 12:49:32;;;;;;;1.58;1.13;;;;;;;;;;20877472;28;20748;-78
2023/08/20 12:59:34;;;;;;;1.38;0.90;;;;;;;;;;20886982;28;20491;-77
2023/08/20 13:09:36;;;;;;;1.77;1.00;;;;;;;;;;20877841;28;20222;-78
2023/08/20 13:19:38;;;;;;;1.63;0.88;;;;;;;;;;20877131;28;20284;-79
2023/08/20 13:29:42;;;;;;;1.45;0.90;;;33.80;99.90;;;;;;20908463;28;20214;-77
2023/08/20 13:39:44;;;;;;;1.70;0.80;;;;;;;;;;20812417;28;20222;-78
2023/08/20 13:49:47;;;;;;;4.22;1.00;;;;;;;;;;20930356;28;20225;-78
2023/08/20 13:59:49;;;;;;;1.00;0.90;;;;;;;;;;20819477;28;20614;-78
2023/08/20 14:09:52;;;;;;;2.70;0.95;;;;;;;;;;20875535;28;20221;-78
2023/08/20 14:19:53;;;;;;;1.50;0.90;;;;;;;;;;20909830;28;20222;-77
2023/08/20 14:29:55;;;;;;;1.42;0.90;;;;;;;;;;20896529;28;20207;-78
2023/08/20 14:39:57;;;;;;;1.45;1.00;;;;;;;;;;20851806;28;20588;-78
2023/08/20 14:49:59;;;;;;;0.82;0.70;;;;;;;;;;20838571;28;20226;-78
2023/08/20 15:00:01;;;;;;;2.10;0.90;;;;;;;;;;20842860;28;20239;-77
2023/08/20 15:10:06;;;;;;;1.42;0.98;;;35.00;99.90;;;;;;20821504;28;20638;-78
2023/08/20 15:20:10;;;;;;;1.27;0.90;;;35.00;99.90;;;;;;20800448;28;20281;-77
2023/08/20 15:30:12;;;;;;;1.35;0.80;;;;;;;;;;20860373;28;20270;-80
2023/08/20 15:40:13;;;;;;;2.17;0.90;;;;;;;;;;20883099;28;20645;-76
2023/08/20 15:50:15;;;;;;;1.90;0.70;;;;;;;;;;20815005;28;20248;-75
2023/08/20 16:00:18;;;;;;;1.35;0.80;;;;;;;;;;20894280;28;20599;-75
2023/08/20 16:10:20;;;;;;;1.38;0.85;;;;;;;;;;20887758;28;20227;-74
2023/08/20 16:20:22;;;;;;;2.15;1.05;;;;;;;;;;20903890;28;20653;-75
2023/08/20 16:30:23;;;;;;;1.77;0.90;;;;;;;;;;20847443;28;20754;-75
2023/08/20 16:40:26;;;;;;;2.55;0.90;;;;;;;;;;20863498;28;20229;-75
2023/08/20 16:50:27;;;;;;;1.75;0.90;;;;;;;;;;20800380;28;20545;-74
2023/08/20 17:00:29;;;;;;;1.13;0.80;;;;;;;;;;20778950;28;20242;-74
2023/08/20 17:10:31;;;;;;;2.13;1.00;;;;;;;;;;20858790;28;20211;-74
2023/08/20 17:20:36;;;;;;;1.90;0.85;;;;;;;;;;20857688;28;20269;-74
2023/08/20 17:30:38;;;;;;;1.25;0.90;;;;;;;;;;20856531;28;20460;-75
2023/08/20 17:40:39;;;;;;;1.77;0.88;;;;;;;;;;20801079;28;20237;-74
2023/08/20 17:50:41;;;;;;;1.20;0.75;;;;;;;;;;20825799;28;20775;-74
2023/08/20 18:00:46;;;;;;;1.20;0.80;;;32.20;99.90;;;;;;20803194;28;20300;-75
2023/08/20 18:10:52;;;;;;;1.52;1.00;;;;;;;;;;20902593;28;20267;-74
2023/08/20 18:20:54;;;;;;;2.65;0.80;;;;;;;;;;20878910;23;20287;-74
2023/08/20 18:31:01;;;;;;;1.58;0.90;;;31.90;99.90;;;;;;20951241;28;20217;-75
2023/08/20 18:41:03;;;;;;;1.85;0.85;;;31.80;99.90;;;;;;20982271;28;20226;-74
2023/08/20 18:51:06;;;;;;;1.83;1.10;;;31.90;99.90;;;;;;20961551;28;20813;-75
2023/08/20 19:01:08;;;;;;;2.45;1.17;;;;;;;;;;20961631;28;20290;-74
2023/08/20 19:11:10;;;;;;;5.22;1.10;;;;;;;;;;20960097;28;20657;-75
2023/08/20 19:21:11;;;;;;;1.75;1.00;;;;;;;;;;20977499;28;20257;-75
2023/08/20 19:31:19;;;;;;;3.97;1.20;;;;;;;;;;20945820;28;20210;-74
2023/08/20 19:41:20;;;;;;;2.17;0.90;;;;;;;;;;20973490;28;20268;-75
2023/08/20 19:51:22;;;;;;;1.70;1.00;;;;;;;;;;20985599;28;20205;-75
2023/08/20 20:01:24;;;;;;;1.25;1.00;;;;;;;;;;20977287;28;20225;-75
2023/08/20 20:11:26;;;;;;;2.22;1.02;;;;;;;;;;20995528;28;20205;-74
2023/08/20 20:21:27;;;;;;;1.83;0.98;;;;;;;;;;21002447;28;20209;-75
2023/08/20 20:31:30;;;;;;;1.88;1.13;;;;;;;;;;20975423;28;20291;-73
2023/08/20 20:41:31;;;;;;;1.30;0.93;;;;;;;;;;20971686;28;20266;-73
2023/08/20 20:51:33;;;;;;;2.03;1.23;;;;;;;;;;20978025;28;20621;-74
2023/08/20 21:01:35;;;;;;;1.48;1.02;;;;;;;;;;20940435;28;20290;-73
2023/08/20 21:11:37;;;;;;;1.38;0.95;;;;;;;;;;20972396;28;20711;-73
2023/08/20 21:21:40;;;;;;;2.78;1.08;;;;;;;;;;20977457;28;20218;-73
2023/08/20 21:31:42;;;;;;;3.67;1.40;;;;;;;;;;20995082;28;20773;-73
2023/08/20 21:41:44;;;;;;;1.75;1.13;;;;;;;;;;20975419;28;20318;-73
2023/08/20 21:51:46;;;;;;;2.22;1.20;;;;;;;;;;20974617;28;20233;-74
2023/08/20 22:01:48;;;;;;;1.33;1.08;;;;;;;;;;20991528;28;20290;-73
2023/08/20 22:11:50;;;;;;;2.75;1.20;;;;;;;;;;20956622;28;20212;-73
2023/08/20 22:21:52;;;;;;;2.83;1.10;;;;;;;;;;20990493;28;20715;-73
2023/08/20 22:31:54;;;;;;;2.90;1.35;;;;;;;;;;20931114;28;20213;-74
2023/08/20 22:41:55;;;;;;;2.10;1.20;;;;;;;;;;20966099;28;20220;-75
2023/08/20 22:51:57;;;;;;;1.67;1.10;;;;;;;;;;20970326;28;20265;-74
2023/08/20 23:01:59;;;;;;;1.60;1.10;;;;;;;;;;20986334;28;20310;-74
2023/08/20 23:12:01;;;;;;;2.25;1.00;;;;;;;;;;20952687;28;20283;-74
2023/08/20 23:22:03;;;;;;;1.80;1.00;;;;;;;;;;20968133;28;20217;-76
2023/08/20 23:32:05;;;;;;;2.10;1.23;;;;;;;;;;20966775;28;20221;-74
2023/08/20 23:42:07;;;;;;;1.67;1.02;;;;;;;;;;20965810;28;20545;-73
2023/08/20 23:52:08;;;;;;;2.33;1.30;;;;;;;;;;20963989;28;20213;-73
